Terminal Aerodrome Forecast
Issued by NWS

Current Version | Previous Version | Text Only | Print | Product List | Glossary Off
Versions: 1 2 3 4 5 6 7 8 9 10 11 12 13 14 15 16 17 18 19 20 21 22

191
FTUS41 KRLX 041521 AAA
TAFCKB
TAF AMD
KCKB 041521Z 0415/0512 28006KT P6SM OVC028
     FM050400 29005KT P6SM BKN025
     FM050800 VRB03KT P6SM SCT020=

USA.gov is the U.S. government's official web portal to all federal, state and local government web resources and services.